Time;durP1;ratioP1;P1;durP2;ratioP2;P2;SDS_P1;SDS_P2;PMS_P1;PMS_P2;Temp;Humidity;BMP_temperature;BMP_pressure;BME280_temperature;BME280_humidity;BME280_pressure;Samples;Min_cycle;Max_cycle;Signal;HPM_P1;HPM_P2
2023/03/21 00:01:33;;;;;;;42.78;10.73;;;;;;;11.37;78.61;100847.50;4970813;28;20097;-80
2023/03/21 00:03:59;;;;;;;50.55;12.65;;;;;;;11.34;79.03;100849.59;4970914;28;20049;-81
2023/03/21 00:06:24;;;;;;;39.20;10.98;;;;;;;11.41;79.13;100861.56;4951796;28;20038;-81
2023/03/21 00:08:50;;;;;;;42.80;11.88;;;;;;;11.45;78.94;100854.94;4970224;28;20549;-81
2023/03/21 00:11:15;;;;;;;42.42;11.15;;;;;;;11.39;78.85;100847.38;4970318;28;20113;-80
2023/03/21 00:13:42;;;;;;;44.15;9.48;;;;;;;11.22;78.93;100837.13;4970553;28;20023;-80
2023/03/21 00:16:15;;;;;;;55.30;11.63;;;;;;;11.26;79.27;100843.94;4970235;28;20030;-81
2023/03/21 00:18:51;;;;;;;37.58;10.10;;;;;;;11.27;78.75;100818.75;4970545;28;20034;-82
2023/03/21 00:21:20;;;;;;;37.22;11.18;;;;;;;11.23;78.43;100822.66;4970079;28;20043;-80
2023/03/21 00:23:46;;;;;;;32.72;11.65;;;;;;;11.25;79.58;100829.63;4970248;28;20034;-80
2023/03/21 00:26:13;;;;;;;31.75;11.15;;;;;;;11.25;79.25;100821.53;4970485;28;20035;-81
2023/03/21 00:28:40;;;;;;;43.47;10.88;;;;;;;11.28;79.12;100809.69;4970354;28;20042;-82
2023/03/21 00:31:06;;;;;;;44.30;11.88;;;;;;;11.35;79.62;100822.50;4986970;28;20056;-80
2023/03/21 00:33:33;;;;;;;36.15;9.65;;;;;;;11.30;79.24;100829.25;4988145;28;20497;-81
2023/03/21 00:35:59;;;;;;;38.20;12.02;;;;;;;11.22;79.53;100829.88;4975687;28;20054;-81
2023/03/21 00:38:25;;;;;;;32.17;11.05;;;;;;;11.16;79.54;100806.13;4969870;28;20026;-82
2023/03/21 00:40:51;;;;;;;37.55;10.63;;;;;;;11.22;79.18;100810.19;4970342;28;20033;-82
2023/03/21 00:43:18;;;;;;;32.90;10.68;;;;;;;11.24;79.33;100810.91;4970349;28;20126;-82
2023/03/21 00:45:45;;;;;;;40.58;9.80;;;;;;;11.20;79.43;100801.38;4970446;28;20506;-82
2023/03/21 00:48:10;;;;;;;31.88;10.15;;;;;;;11.23;78.93;100812.75;4970283;28;20386;-81
2023/03/21 00:50:37;;;;;;;35.80;9.80;;;;;;;11.22;79.34;100807.50;4970185;28;20085;-81
2023/03/21 00:53:04;;;;;;;44.15;11.02;;;;;;;11.19;79.26;100799.66;4970250;28;20396;-83
2023/03/21 00:55:29;;;;;;;41.42;11.77;;;;;;;11.24;79.21;100802.84;4970627;28;20027;-80
2023/03/21 00:57:55;;;;;;;39.10;9.60;;;;;;;11.19;79.56;100783.53;4972524;28;20091;-82
2023/03/21 01:00:21;;;;;;;28.05;9.60;;;;;;;11.25;78.62;100794.63;4974103;28;20610;-82
2023/03/21 01:02:55;;;;;;;46.22;9.57;;;;;;;11.31;78.86;100806.75;4974271;28;20031;-81
2023/03/21 01:08:13;;;;;;;28.02;9.52;;;;;;;11.27;79.43;100816.06;4973691;28;20478;-80
2023/03/21 01:10:41;;;;;;;44.58;9.82;;;;;;;11.25;80.07;100805.38;4974006;28;20062;-81
2023/03/21 01:13:08;;;;;;;35.55;10.32;;;;;;;11.31;79.50;100804.06;4974055;28;20470;-82
2023/03/21 01:15:34;;;;;;;41.60;10.45;;;;;;;11.34;79.18;100803.81;4973778;28;20557;-80
2023/03/21 01:18:00;;;;;;;28.52;9.13;;;;;;;11.34;78.75;100787.66;4974156;28;20035;-80
2023/03/21 01:20:26;;;;;;;50.58;12.90;;;;;;;11.28;78.69;100804.31;4974250;28;20015;-81
2023/03/21 01:22:52;;;;;;;31.92;10.45;;;;;;;11.32;79.04;100795.84;4974085;28;20031;-81
2023/03/21 01:25:18;;;;;;;43.95;11.70;;;;;;;11.34;79.26;100793.88;4974042;28;20027;-82
2023/03/21 01:27:43;;;;;;;27.65;9.07;;;;;;;11.35;78.86;100778.56;4974192;28;20193;-79
2023/03/21 01:30:09;;;;;;;43.92;9.95;;;;;;;11.23;79.30;100774.19;4987941;28;20035;-79
2023/03/21 01:32:35;;;;;;;29.85;10.45;;;;;;;11.27;79.22;100781.91;4990824;28;20033;-82
2023/03/21 01:35:00;;;;;;;44.08;11.50;;;;;;;11.28;78.53;100786.28;4981177;28;21055;-81
2023/03/21 01:37:26;;;;;;;25.45;10.05;;;;;;;11.26;78.88;100796.34;4974530;28;20053;-81
2023/03/21 01:39:51;;;;;;;36.63;10.88;;;;;;;11.24;79.52;100786.69;4974722;28;20038;-80
2023/03/21 01:42:17;;;;;;;37.15;10.77;;;;;;;11.16;79.47;100789.97;4980960;28;20034;-80
2023/03/21 01:45:04;;;;;;;104.72;31.42;;;;;;;11.17;80.18;100774.69;4995073;28;20039;-79
2023/03/21 01:47:30;;;;;;;38.45;13.85;;;;;;;11.25;79.60;100777.63;4995385;28;20023;-80
2023/03/21 01:49:59;;;;;;;41.10;14.65;;;;;;;11.24;79.53;100778.59;4984229;28;20043;-81
2023/03/21 01:52:31;;;;;;;49.20;14.48;;;;;;;11.16;79.13;100760.38;4974788;28;20019;-81
2023/03/21 01:54:57;;;;;;;46.63;14.60;;;;;;;11.12;79.87;100771.53;4973509;28;20467;-82
2023/03/21 01:57:31;;;;;;;46.00;12.93;;;;;;;11.11;79.80;100770.66;4972071;28;20038;-81
2023/03/21 02:00:05;;;;;;;27.88;11.57;;;;;;;11.08;80.18;100770.06;4972748;28;20501;-81
2023/03/21 02:02:30;;;;;;;39.47;12.32;;;;;;;11.13;80.49;100762.50;4972382;28;20023;-81
2023/03/21 02:05:02;;;;;;;35.65;10.90;;;;;;;11.06;80.64;100762.13;4973009;28;20041;-81
2023/03/21 02:07:34;;;;;;;44.55;12.45;;;;;;;11.09;80.54;100758.31;4971817;28;20031;-82
2023/03/21 02:10:03;;;;;;;39.78;11.63;;;;;;;11.08;80.91;100756.59;4972337;28;20054;-82
2023/03/21 02:12:30;;;;;;;36.80;10.48;;;;;;;10.89;81.49;100765.31;4971775;28;20065;-82
2023/03/21 02:14:57;;;;;;;32.78;10.48;;;;;;;10.99;81.70;100773.50;4953787;28;20047;-79
2023/03/21 02:17:40;;;;;;;31.15;10.98;;;;;;;10.91;81.61;100753.47;4972176;28;20038;-83
2023/03/21 02:20:12;;;;;;;40.58;10.73;;;;;;;10.81;81.80;100763.25;4972456;28;20034;-81
2023/03/21 02:22:59;;;;;;;49.43;11.77;;;;;;;10.82;82.61;100778.38;4972257;28;20026;-82
2023/03/21 02:26:16;;;;;;;34.75;12.10;;;;;;;10.88;82.95;100780.63;4972414;28;20042;-80
2023/03/21 02:28:52;;;;;;;26.92;12.90;;;;;;;10.95;82.85;100780.13;4940013;29;20309;-80
2023/03/21 02:31:21;;;;;;;27.50;11.98;;;;;;;10.99;82.66;100786.94;4951742;29;20042;-79
2023/03/21 02:34:15;;;;;;;32.17;11.93;;;;;;;11.05;83.08;100773.84;4944919;29;20107;-82
2023/03/21 02:36:58;;;;;;;38.78;12.88;;;;;;;11.07;82.26;100776.44;4912211;29;20054;-81
2023/03/21 02:39:32;;;;;;;39.83;12.93;;;;;;;10.97;82.33;100773.63;4912441;29;20044;-82
2023/03/21 02:42:25;;;;;;;28.48;11.60;;;;;;;10.96;82.41;100776.44;4912112;29;20040;-81
2023/03/21 02:45:19;;;;;;;32.50;11.20;;;;;;;11.01;82.82;100779.63;4911883;29;20048;-82
2023/03/21 02:47:52;;;;;;;30.95;11.88;;;;;;;11.02;82.10;100770.56;4911441;29;20106;-80
2023/03/21 02:50:28;;;;;;;38.25;11.20;;;;;;;10.98;81.94;100774.50;4912013;29;20040;-82
2023/03/21 02:52:55;;;;;;;37.78;11.40;;;;;;;10.85;82.15;100763.88;4911739;29;21225;-82
2023/03/21 02:55:26;;;;;;;39.28;12.07;;;;;;;10.83;82.57;100772.03;4911991;29;20154;-82
2023/03/21 02:57:55;;;;;;;23.42;10.75;;;;;;;10.79;82.82;100758.97;4911701;29;20044;-80
2023/03/21 03:00:26;;;;;;;32.45;11.10;;;;;;;10.86;82.86;100766.41;4911686;29;20047;-80
2023/03/21 03:02:52;;;;;;;41.60;11.70;;;;;;;10.78;82.44;100768.88;4911952;29;20059;-81
2023/03/21 03:05:23;;;;;;;40.65;11.38;;;;;;;10.68;83.37;100767.88;4911859;29;20083;-81
2023/03/21 03:08:04;;;;;;;43.38;13.20;;;;;;;10.82;83.29;100761.41;4911029;29;20044;-81
2023/03/21 03:10:47;;;;;;;28.88;11.98;;;;;;;10.82;83.10;100753.34;4911785;29;20072;-81
2023/03/21 03:13:16;;;;;;;33.40;11.60;;;;;;;10.83;82.70;100753.22;4931631;28;20047;-83
2023/03/21 03:15:50;;;;;;;39.53;11.02;;;;;;;10.90;83.18;100743.66;4971285;28;20031;-80
2023/03/21 03:18:37;;;;;;;43.75;11.02;;;;;;;10.87;82.59;100754.69;4971086;28;20205;-81
2023/03/21 03:21:29;;;;;;;32.38;9.75;;;;;;;10.73;83.08;100754.91;4970645;28;20478;-81
2023/03/21 03:24:19;;;;;;;21.92;9.82;;;;;;;10.71;83.77;100756.88;4971412;28;20039;-82
2023/03/21 03:26:57;;;;;;;27.33;10.02;;;;;;;10.72;83.93;100753.22;4971193;28;20035;-82
2023/03/21 03:29:27;;;;;;;23.38;9.73;;;;;;;10.75;83.45;100747.59;4991653;28;20030;-81
2023/03/21 03:31:59;;;;;;;25.83;10.63;;;;;;;10.71;83.75;100745.25;4990824;28;20054;-83
2023/03/21 03:34:33;;;;;;;41.83;10.85;;;;;;;10.68;84.06;100746.38;4974962;28;20030;-81
2023/03/21 03:37:04;;;;;;;33.17;10.45;;;;;;;10.74;84.00;100756.63;4970871;28;20117;-81
2023/03/21 03:39:38;;;;;;;65.68;15.82;;;;;;;10.77;83.88;100753.69;4970771;28;20034;-82
2023/03/21 03:42:12;;;;;;;30.98;12.40;;;;;;;10.76;83.93;100735.84;4969364;28;20132;-81
2023/03/21 03:44:38;;;;;;;31.50;11.40;;;;;;;10.71;84.22;100746.13;4970436;28;20443;-80
2023/03/21 03:47:09;;;;;;;38.13;11.70;;;;;;;10.74;84.60;100756.63;4971287;28;20026;-82
2023/03/21 03:49:41;;;;;;;34.58;11.07;;;;;;;10.58;83.96;100753.44;4970638;28;20035;-81
2023/03/21 03:52:21;;;;;;;32.28;12.13;;;;;;;10.68;84.26;100767.88;4970640;28;20034;-82
2023/03/21 03:54:48;;;;;;;25.95;11.35;;;;;;;10.72;84.30;100763.97;4970592;28;20042;-80
2023/03/21 03:57:14;;;;;;;32.40;11.10;;;;;;;10.72;84.01;100755.91;4970705;28;20026;-82
2023/03/21 03:59:42;;;;;;;27.17;11.13;;;;;;;10.69;84.05;100752.59;4984705;28;20509;-82
2023/03/21 04:02:08;;;;;;;35.67;12.45;;;;;;;10.76;83.90;100753.84;4970459;28;20041;-83
2023/03/21 04:04:35;;;;;;;30.70;11.63;;;;;;;10.84;83.55;100752.25;4970199;28;20491;-82
2023/03/21 04:07:02;;;;;;;37.92;11.32;;;;;;;10.85;83.60;100766.56;4966185;28;20081;-83
2023/03/21 04:09:29;;;;;;;30.50;11.30;;;;;;;10.85;83.66;100753.97;4966733;28;20085;-84
2023/03/21 04:11:55;;;;;;;40.60;12.48;;;;;;;10.88;83.39;100737.56;4967698;28;20030;-83
2023/03/21 04:14:21;;;;;;;31.55;11.38;;;;;;;10.88;82.98;100759.09;4961442;28;20058;-82
2023/03/21 04:16:48;;;;;;;35.97;14.90;;;;;;;10.87;83.31;100756.50;4950950;28;20043;-83
2023/03/21 04:19:14;;;;;;;45.92;12.48;;;;;;;10.91;83.73;100752.59;4950915;28;20034;-84
2023/03/21 04:21:40;;;;;;;24.48;11.57;;;;;;;10.95;83.40;100737.06;4951989;28;20387;-83
2023/03/21 04:24:06;;;;;;;38.47;11.85;;;;;;;11.00;82.81;100734.84;4951069;28;20039;-81
2023/03/21 04:26:32;;;;;;;49.55;13.50;;;;;;;11.00;83.10;100740.22;4951912;28;20181;-80
2023/03/21 04:28:59;;;;;;;30.50;12.05;;;;;;;10.87;83.42;100740.38;4977166;28;20332;-80
2023/03/21 04:31:27;;;;;;;34.00;11.40;;;;;;;10.78;83.72;100731.22;4975772;28;20396;-80
2023/03/21 04:33:54;;;;;;;34.20;12.50;;;;;;;10.81;83.46;100736.34;4975460;28;20065;-83
2023/03/21 04:36:26;;;;;;;35.22;12.65;;;;;;;10.81;83.70;100754.31;4964135;28;20034;-82
2023/03/21 04:38:52;;;;;;;36.87;13.10;;;;;;;10.79;84.47;100742.84;4955914;28;20038;-81
2023/03/21 04:41:18;;;;;;;39.58;13.75;;;;;;;10.81;84.75;100768.63;4955169;28;20031;-82
2023/03/21 04:43:44;;;;;;;33.78;13.27;;;;;;;10.77;84.89;100761.78;4955348;28;20414;-80
2023/03/21 04:46:10;;;;;;;46.33;17.52;;;;;;;10.76;84.94;100760.03;4955188;28;20034;-85
2023/03/21 04:48:35;;;;;;;48.15;14.95;;;;;;;10.54;84.26;100754.69;4937849;29;20035;-83
2023/03/21 04:51:01;;;;;;;25.55;14.60;;;;;;;10.62;84.21;100773.75;4954600;28;20038;-83
2023/03/21 04:53:26;;;;;;;38.67;14.30;;;;;;;10.53;84.34;100781.69;4955309;28;20050;-80
2023/03/21 04:55:52;;;;;;;49.90;17.65;;;;;;;10.60;85.11;100770.34;4954942;28;20028;-80
2023/03/21 04:58:19;;;;;;;51.85;16.48;;;;;;;10.65;84.58;100764.56;4955401;28;20444;-82
2023/03/21 05:00:45;;;;;;;39.58;16.83;;;;;;;10.64;84.38;100766.41;4955440;28;20031;-80
2023/03/21 05:03:18;;;;;;;34.10;15.48;;;;;;;10.68;84.53;100765.19;4955524;28;20102;-86
2023/03/21 05:05:44;;;;;;;38.53;16.45;;;;;;;10.76;84.48;100781.56;4957937;28;20031;-84
2023/03/21 05:08:12;;;;;;;43.13;16.83;;;;;;;10.81;84.17;100774.00;4960967;28;20054;-88
2023/03/21 05:10:37;;;;;;;49.35;16.17;;;;;;;10.76;83.88;100765.44;4965279;28;20032;-82
2023/03/21 05:13:03;;;;;;;52.28;16.73;;;;;;;10.83;84.35;100771.19;4969665;28;20031;-85
2023/03/21 05:15:28;;;;;;;81.80;18.70;;;;;;;10.90;84.14;100780.47;4974975;28;20047;-85
2023/03/21 05:17:54;;;;;;;45.88;17.20;;;;;;;10.81;84.51;100767.75;4974795;28;20043;-85
2023/03/21 05:20:19;;;;;;;49.33;18.20;;;;;;;10.79;84.54;100767.03;4977355;28;20026;-87
2023/03/21 05:22:49;;;;;;;53.28;18.13;;;;;;;10.89;84.35;100759.91;4975563;28;20094;-83
2023/03/21 05:25:16;;;;;;;48.63;15.88;;;;;;;10.76;83.81;100749.28;4977149;28;20023;-81
2023/03/21 05:27:44;;;;;;;52.75;17.48;;;;;;;10.82;83.97;100754.19;4994465;28;20031;-79
2023/03/21 05:30:16;;;;;;;47.92;16.75;;;;;;;10.93;83.79;100762.25;4992548;28;20094;-80
2023/03/21 05:32:42;;;;;;;65.68;16.63;;;;;;;10.86;83.60;100766.41;4974678;28;20027;-80
2023/03/21 05:35:08;;;;;;;64.85;17.08;;;;;;;10.85;84.22;100753.97;4978892;28;20043;-82
2023/03/21 05:37:34;;;;;;;77.43;19.63;;;;;;;10.89;84.10;100765.31;4975560;28;20035;-79
2023/03/21 05:39:59;;;;;;;31.55;16.67;;;;;;;10.79;84.26;100754.41;4988933;28;20034;-80
2023/03/21 05:42:25;;;;;;;60.03;21.80;;;;;;;10.87;84.45;100752.00;4993930;28;20018;-78
2023/03/21 05:44:50;;;;;;;61.20;18.63;;;;;;;10.70;84.47;100743.56;4985962;28;20390;-81
2023/03/21 05:47:17;;;;;;;78.45;20.48;;;;;;;10.50;85.91;100737.06;4979440;28;20043;-82
2023/03/21 05:49:43;;;;;;;53.55;21.13;;;;;;;10.38;87.11;100773.00;4974366;28;20405;-80
2023/03/21 05:52:09;;;;;;;69.65;23.30;;;;;;;10.46;87.23;100767.88;4974740;28;20030;-81
2023/03/21 05:54:35;;;;;;;107.25;46.13;;;;;;;10.62;87.29;100773.75;4958835;28;20035;-80
2023/03/21 05:57:01;;;;;;;49.63;20.63;;;;;;;10.71;87.23;100773.03;4982327;28;20455;-80
2023/03/21 05:59:26;;;;;;;58.75;19.58;;;;;;;10.68;86.99;100789.41;4985949;28;20033;-79
2023/03/21 06:01:51;;;;;;;57.85;19.88;;;;;;;10.76;87.02;100795.03;4985087;28;20089;-78
2023/03/21 06:04:17;;;;;;;66.50;25.85;;;;;;;10.81;86.44;100798.22;4976369;28;20041;-80
2023/03/21 06:06:42;;;;;;;59.97;22.17;;;;;;;10.83;86.68;100788.19;4973116;28;20031;-80
2023/03/21 06:09:08;;;;;;;70.75;23.63;;;;;;;10.89;85.97;100786.81;4972745;28;20506;-81
2023/03/21 06:11:36;;;;;;;97.60;24.70;;;;;;;10.90;86.13;100794.78;4973297;28;20038;-81
2023/03/21 06:14:02;;;;;;;90.82;26.02;;;;;;;10.97;85.81;100783.53;4972548;28;20073;-81
2023/03/21 06:16:28;;;;;;;63.05;22.23;;;;;;;11.00;85.71;100799.44;4973010;28;20050;-83
2023/03/21 06:18:54;;;;;;;75.38;25.27;;;;;;;10.86;85.71;100793.31;4972471;28;20093;-80
2023/03/21 06:21:20;;;;;;;57.33;23.90;;;;;;;10.97;85.99;100788.91;4972355;28;20031;-79
2023/03/21 06:23:50;;;;;;;70.93;22.88;;;;;;;11.04;85.68;100790.16;4978737;28;20105;-79
2023/03/21 06:26:18;;;;;;;66.65;24.73;;;;;;;11.00;85.53;100785.97;4979541;28;20027;-78
2023/03/21 06:28:44;;;;;;;89.80;26.85;;;;;;;11.09;85.81;100785.25;4977184;28;20030;-79
2023/03/21 06:31:09;;;;;;;78.35;27.23;;;;;;;11.08;85.43;100791.59;4972209;28;20031;-80
2023/03/21 06:33:35;;;;;;;61.72;28.08;;;;;;;11.06;85.67;100793.56;4972267;28;20130;-80
2023/03/21 06:36:01;;;;;;;77.82;29.17;;;;;;;11.12;85.91;100803.84;4972612;28;20088;-80
2023/03/21 06:38:26;;;;;;;60.53;26.85;;;;;;;11.14;85.45;100786.56;4971980;28;20113;-80
2023/03/21 06:40:52;;;;;;;63.13;28.08;;;;;;;11.15;85.33;100780.22;4971877;28;20162;-79
2023/03/21 06:43:17;;;;;;;62.50;27.13;;;;;;;11.23;85.75;100785.81;4971435;28;20478;-79
2023/03/21 06:45:43;;;;;;;63.60;27.63;;;;;;;11.26;85.49;100793.66;4971640;28;20498;-79
2023/03/21 06:48:09;;;;;;;62.22;24.40;;;;;;;11.22;85.43;100799.41;4971508;28;20046;-81
2023/03/21 06:50:35;;;;;;;70.55;29.98;;;;;;;11.19;85.18;100780.84;4971796;28;20081;-80
2023/03/21 06:53:00;;;;;;;66.22;28.48;;;;;;;11.33;85.41;100799.41;4971532;28;20027;-79
2023/03/21 06:55:27;;;;;;;56.95;25.88;;;;;;;11.24;84.77;100784.00;4970759;28;20022;-81
2023/03/21 06:57:54;;;;;;;69.20;26.98;;;;;;;11.34;85.16;100791.19;4971711;28;20138;-79
2023/03/21 07:00:21;;;;;;;87.63;29.55;;;;;;;11.43;84.45;100794.97;4971516;28;20106;-80
2023/03/21 07:02:48;;;;;;;51.78;24.15;;;;;;;11.30;84.87;100792.44;4971751;28;20530;-79
2023/03/21 07:05:15;;;;;;;53.88;25.85;;;;;;;11.31;84.80;100787.91;4971400;28;20030;-80
2023/03/21 07:07:40;;;;;;;63.70;24.70;;;;;;;11.36;84.71;100797.31;4971172;28;20496;-80
2023/03/21 07:10:07;;;;;;;72.22;24.33;;;;;;;11.43;84.54;100792.28;4971222;28;20047;-79
2023/03/21 07:12:34;;;;;;;61.40;22.90;;;;;;;11.42;84.38;100771.72;4971195;28;20054;-79
2023/03/21 07:15:01;;;;;;;83.32;26.85;;;;;;;11.35;84.28;100757.88;4971158;28;20035;-79
2023/03/21 07:17:27;;;;;;;71.03;21.60;;;;;;;11.31;83.82;100763.66;4971502;28;20033;-80
2023/03/21 07:19:52;;;;;;;67.82;21.52;;;;;;;11.28;84.42;100777.38;4971855;28;20035;-79
2023/03/21 07:22:18;;;;;;;51.45;22.30;;;;;;;11.09;84.40;100787.94;4974305;28;20034;-83
2023/03/21 07:24:47;;;;;;;233.25;37.20;;;;;;;10.92;85.62;100795.50;4979808;28;20050;-79
2023/03/21 07:27:13;;;;;;;71.75;24.38;;;;;;;10.99;85.74;100800.41;4979135;28;20073;-82
2023/03/21 07:29:38;;;;;;;73.15;24.58;;;;;;;11.06;85.51;100807.88;4971007;28;20117;-78
2023/03/21 07:32:04;;;;;;;62.92;22.95;;;;;;;11.15;85.77;100807.13;4971437;28;20113;-80
2023/03/21 07:34:32;;;;;;;62.40;24.02;;;;;;;11.09;85.69;100820.22;4971082;28;20035;-80
2023/03/21 07:36:57;;;;;;;62.53;24.58;;;;;;;11.15;86.30;100808.97;4970850;28;20034;-79
2023/03/21 07:39:22;;;;;;;48.33;22.85;;;;;;;11.21;86.00;100781.53;4971210;28;20088;-79
2023/03/21 07:41:48;;;;;;;43.60;22.83;;;;;;;11.26;86.03;100768.56;4971123;28;20022;-79
2023/03/21 07:44:14;;;;;;;51.95;22.83;;;;;;;11.16;86.43;100751.47;4970449;28;20082;-80
2023/03/21 07:46:40;;;;;;;59.78;24.67;;;;;;;11.13;87.29;100751.72;4971148;28;20026;-79
2023/03/21 07:49:07;;;;;;;47.70;24.95;;;;;;;10.90;86.99;100772.41;4970325;28;20039;-81
2023/03/21 07:51:34;;;;;;;65.00;26.10;;;;;;;11.03;88.10;100780.34;4970552;28;20038;-80
2023/03/21 07:54:00;;;;;;;68.10;27.48;;;;;;;10.99;88.16;100770.81;4970857;28;20418;-80
2023/03/21 07:56:27;;;;;;;58.75;28.23;;;;;;;11.06;88.20;100780.09;4970293;28;20709;-79
2023/03/21 07:58:52;;;;;;;62.22;28.65;;;;;;;11.12;88.08;100779.59;4970680;28;20030;-81
2023/03/21 08:01:18;;;;;;;74.35;26.20;;;;;;;11.12;87.53;100760.75;4970275;28;20034;-80
2023/03/21 08:03:43;;;;;;;59.75;25.77;;;;;;;10.95;88.62;100770.19;4970419;28;20050;-79
2023/03/21 08:06:09;;;;;;;69.20;28.38;;;;;;;10.95;88.65;100767.50;4970434;28;20114;-81
2023/03/21 08:08:35;;;;;;;70.43;28.00;;;;;;;10.92;88.34;100759.69;4970426;28;20054;-78
2023/03/21 08:11:00;;;;;;;85.65;28.52;;;;;;;10.87;89.41;100743.06;4970247;28;20031;-80
2023/03/21 08:13:26;;;;;;;74.32;31.25;;;;;;;10.91;89.61;100748.09;4970192;28;20030;-79
2023/03/21 08:15:52;;;;;;;61.75;29.27;;;;;;;10.69;90.25;100753.47;4970466;28;20183;-79
2023/03/21 08:18:17;;;;;;;59.05;26.50;;;;;;;10.34;90.69;100758.06;4970385;28;20109;-81
2023/03/21 08:20:42;;;;;;;70.47;32.75;;;;;;;10.30;91.14;100751.25;4970556;28;20128;-79
2023/03/21 08:23:08;;;;;;;71.47;32.75;;;;;;;10.10;92.14;100754.56;4978650;28;20026;-82
2023/03/21 08:25:34;;;;;;;63.40;33.10;;;;;;;10.29;93.09;100760.28;4961749;28;20050;-80
2023/03/21 08:27:59;;;;;;;71.13;33.97;;;;;;;10.26;94.00;100760.50;4972088;28;20038;-82
2023/03/21 08:30:27;;;;;;;67.47;32.55;;;;;;;10.40;94.69;100764.81;4970159;28;20088;-79
2023/03/21 08:32:59;;;;;;;68.55;33.28;;;;;;;10.46;94.64;100773.25;4970046;28;20081;-79
2023/03/21 08:35:25;;;;;;;;;;;;;;;10.53;95.25;100766.41;4970552;28;20031;-80
2023/03/21 08:37:50;;;;;;;76.68;31.35;;;;;;;10.60;94.53;100764.09;4970099;28;19906;-79
2023/03/21 08:40:17;;;;;;;57.25;31.15;;;;;;;10.61;95.07;100771.19;4969799;28;20062;-80
2023/03/21 08:42:43;;;;;;;69.43;32.70;;;;;;;10.68;94.47;100767.88;4970087;28;20076;-81
2023/03/21 08:45:10;;;;;;;70.53;31.15;;;;;;;10.73;94.51;100760.28;4970237;28;20035;-80
2023/03/21 08:47:36;;;;;;;70.80;33.28;;;;;;;10.80;93.75;100766.03;4969836;28;20031;-79
2023/03/21 08:50:05;;;;;;;65.88;28.00;;;;;;;10.81;93.68;100765.06;4970166;28;20050;-79
2023/03/21 08:52:31;;;;;;;72.55;28.75;;;;;;;10.87;92.74;100778.03;4970052;28;20375;-80
2023/03/21 08:54:56;;;;;;;67.15;28.98;;;;;;;10.97;92.72;100779.03;4969238;28;20038;-79
2023/03/21 08:57:22;;;;;;;57.47;29.13;;;;;;;11.10;92.66;100784.28;4970442;28;20467;-80
2023/03/21 08:59:47;;;;;;;74.90;31.92;;;;;;;11.12;91.74;100790.38;4951874;28;20039;-79
2023/03/21 09:02:15;;;;;;;71.35;28.90;;;;;;;11.13;90.70;100765.19;4970295;28;20034;-78
2023/03/21 09:04:40;;;;;;;56.65;30.05;;;;;;;11.26;90.63;100773.94;4970412;28;21379;-79
2023/03/21 09:07:06;;;;;;;75.78;32.00;;;;;;;11.14;90.54;100766.88;4970429;28;20027;-80
2023/03/21 09:09:32;;;;;;;75.40;31.67;;;;;;;11.15;89.91;100777.53;4968547;28;20050;-82
2023/03/21 09:11:57;;;;;;;88.15;32.33;;;;;;;11.27;89.34;100759.50;4970477;28;20041;-80
2023/03/21 09:14:23;;;;;;;67.60;30.92;;;;;;;11.29;89.40;100746.75;4970080;28;20109;-79
2023/03/21 09:16:49;;;;;;;78.72;31.38;;;;;;;11.32;89.04;100757.28;4969712;28;20019;-79
2023/03/21 09:19:16;;;;;;;66.07;27.38;;;;;;;11.20;89.00;100760.97;4972718;28;20038;-79
2023/03/21 09:21:42;;;;;;;59.45;26.65;;;;;;;11.05;89.31;100755.03;4977689;28;20038;-80
2023/03/21 09:24:08;;;;;;;68.32;26.73;;;;;;;11.12;89.44;100758.06;4981800;28;20030;-80
2023/03/21 09:26:34;;;;;;;76.53;26.00;;;;;;;10.95;89.43;100758.59;4978272;28;20026;-80
2023/03/21 09:29:00;;;;;;;58.75;26.80;;;;;;;10.84;89.15;100763.00;4987107;28;20485;-80
2023/03/21 09:31:27;;;;;;;62.63;26.10;;;;;;;10.60;90.04;100759.59;4973217;28;20034;-78
2023/03/21 09:33:54;;;;;;;62.25;30.05;;;;;;;10.73;90.65;100762.97;4973938;28;20031;-79
2023/03/21 09:36:23;;;;;;;82.63;32.80;;;;;;;10.83;90.76;100774.72;4973536;28;20093;-81
2023/03/21 09:38:49;;;;;;;60.28;30.90;;;;;;;10.77;91.05;100783.28;4973532;28;20026;-79
2023/03/21 09:41:33;;;;;;;57.95;30.45;;;;;;;10.79;91.09;100785.88;4973411;28;20030;-80
2023/03/21 09:44:25;;;;;;;57.67;26.80;;;;;;;10.75;90.94;100771.81;4973301;28;20023;-79
2023/03/21 09:47:02;;;;;;;69.82;30.25;;;;;;;10.84;90.80;100775.59;4931966;29;20102;-79
2023/03/21 09:49:33;;;;;;;73.15;30.65;;;;;;;10.68;90.88;100756.25;4931999;29;20051;-80
2023/03/21 09:52:04;;;;;;;67.25;31.17;;;;;;;10.79;91.08;100780.50;4931661;29;20054;-79
2023/03/21 09:54:37;;;;;;;66.25;33.22;;;;;;;10.74;91.22;100778.16;4932157;29;20067;-79
2023/03/21 09:57:22;;;;;;;70.38;33.97;;;;;;;10.81;91.79;100774.00;4932554;29;20491;-81
2023/03/21 09:59:49;;;;;;;83.13;36.90;;;;;;;10.89;91.47;100781.44;4932630;29;20610;-80
2023/03/21 10:02:18;;;;;;;96.80;31.98;;;;;;;10.98;91.84;100772.63;4933048;29;20028;-81
2023/03/21 10:04:45;;;;;;;61.42;33.70;;;;;;;10.99;91.17;100765.41;4932405;29;20075;-80
2023/03/21 10:07:17;;;;;;;105.35;35.65;;;;;;;11.05;90.42;100781.06;4931891;29;20132;-80
2023/03/21 10:09:45;;;;;;;69.00;32.38;;;;;;;11.09;89.65;100785.25;4939919;29;20079;-81
2023/03/21 10:12:20;;;;;;;86.80;36.10;;;;;;;11.17;90.11;100785.47;4945071;29;20036;-80
2023/03/21 10:14:53;;;;;;;83.22;35.53;;;;;;;11.11;89.23;100777.88;4940615;29;20056;-77
2023/03/21 10:17:18;;;;;;;81.18;35.35;;;;;;;11.39;89.29;100790.81;4936337;29;20126;-81
2023/03/21 10:19:45;;;;;;;60.70;32.78;;;;;;;11.36;88.92;100777.59;4932508;29;20163;-80
2023/03/21 10:22:11;;;;;;;68.57;34.80;;;;;;;11.53;88.86;100782.44;4943048;29;20038;-80
2023/03/21 10:24:37;;;;;;;91.22;38.40;;;;;;;11.67;87.55;100784.84;4974873;28;20129;-78
2023/03/21 10:27:03;;;;;;;60.25;29.13;;;;;;;11.64;86.83;100779.72;4973212;28;20105;-80
2023/03/21 10:29:42;;;;;;;98.82;33.05;;;;;;;11.82;86.39;100782.75;4972140;28;20039;-81
2023/03/21 10:32:14;;;;;;;70.63;32.70;;;;;;;11.86;85.27;100776.94;4971993;28;20454;-80
2023/03/21 10:34:44;;;;;;;100.15;35.40;;;;;;;11.96;85.37;100777.91;4971707;28;20037;-80
2023/03/21 10:37:11;;;;;;;60.22;31.45;;;;;;;11.93;84.80;100775.47;4971526;28;20041;-82
2023/03/21 10:39:40;;;;;;;137.80;37.28;;;;;;;12.00;84.81;100786.59;4971511;28;20045;-80
2023/03/21 10:42:13;;;;;;;74.65;32.30;;;;;;;11.83;84.67;100789.84;4970418;28;20405;-80
2023/03/21 10:44:39;;;;;;;93.05;31.17;;;;;;;11.84;85.21;100787.03;4971513;28;20039;-79
2023/03/21 10:47:07;;;;;;;71.00;32.35;;;;;;;11.98;84.93;100780.47;4971706;28;20428;-78
2023/03/21 10:49:34;;;;;;;86.80;35.10;;;;;;;12.11;84.29;100788.38;4971331;28;20402;-79
2023/03/21 10:52:10;;;;;;;129.70;33.97;;;;;;;12.12;83.68;100773.91;4971502;28;20054;-82
2023/03/21 10:54:36;;;;;;;81.95;31.70;;;;;;;12.14;82.76;100777.34;4971459;28;20026;-81
2023/03/21 10:57:25;;;;;;;96.43;34.03;;;;;;;12.12;83.25;100766.66;4971327;28;20109;-79
2023/03/21 11:00:13;;;;;;;107.32;34.35;;;;;;;12.29;82.82;100767.94;4985494;28;20050;-80
2023/03/21 11:02:39;;;;;;;85.30;31.38;;;;;;;12.26;82.50;100760.09;4971328;28;20031;-81
2023/03/21 11:05:26;;;;;;;113.30;32.55;;;;;;;12.30;81.88;100761.53;4970973;28;20031;-81
2023/03/21 11:08:05;;;;;;;48.83;27.77;;;;;;;12.47;81.21;100777.13;4971055;28;20027;-81
2023/03/21 11:10:50;;;;;;;117.90;33.20;;;;;;;12.48;81.21;100768.03;4971469;28;20054;-80
2023/03/21 11:13:24;;;;;;;90.30;30.00;;;;;;;12.61;81.13;100768.66;4971415;28;20031;-82
2023/03/21 11:15:57;;;;;;;56.08;28.38;;;;;;;12.59;80.25;100772.50;4971537;28;20090;-79
2023/03/21 11:18:29;;;;;;;94.30;28.98;;;;;;;12.65;79.96;100762.03;4970953;28;20042;-81
2023/03/21 11:21:01;;;;;;;73.18;30.08;;;;;;;12.65;79.45;100767.41;4974520;28;20033;-81